DLH5UY EDDF-EDDL
Flight info
| Callsign | DLH5UY |
|---|---|
| Flight time | 0h 25m |
| Altitude | 24000 |
| Route | MARUN3W MARUN Y152 ARPEG Z850 ADEMI T854 DOMUX DOMUX1A |
| Aircraft | A320/M-SDE3FGHIRWY/LB1 |
Departure
| Time | 2026-04-16 06:17 |
|---|---|
| Airport | Frankfurt Main Airport (EDDF) |
Arrival
| Time | 2026-04-16 06:43 |
|---|---|
| Airport | Düsseldorf Airport (EDDL) |
| Time | Latitude | Longitude | Altitude | Speed | Heading |
|---|---|---|---|---|---|
| 2026-04-16 05:55 | 50.04431 | 8.56329 | 362 ft | 0 kts | 167° |
| 2026-04-16 06:10 | 50.04435 | 8.56327 | 356 ft | 2 kts | 167° |
| 2026-04-16 06:10 | 50.04451 | 8.56321 | 363 ft | 2 kts | 167° |
| 2026-04-16 06:11 | 50.04467 | 8.56315 | 363 ft | 2 kts | 171° |
| 2026-04-16 06:11 | 50.04484 | 8.56319 | 359 ft | 2 kts | 238° |
| 2026-04-16 06:11 | 50.04486 | 8.56323 | 361 ft | 0 kts | 250° |
| 2026-04-16 06:13 | 50.04485 | 8.56315 | 358 ft | 4 kts | 255° |
| 2026-04-16 06:13 | 50.04476 | 8.56218 | 356 ft | 14 kts | 251° |
| 2026-04-16 06:13 | 50.04431 | 8.56047 | 359 ft | 18 kts | 229° |
| 2026-04-16 06:13 | 50.04316 | 8.56077 | 355 ft | 19 kts | 150° |
| 2026-04-16 06:14 | 50.04255 | 8.56230 | 360 ft | 18 kts | 159° |
| 2026-04-16 06:14 | 50.04145 | 8.56326 | 361 ft | 18 kts | 109° |
| 2026-04-16 06:14 | 50.04182 | 8.56510 | 359 ft | 18 kts | 70° |
| 2026-04-16 06:14 | 50.04223 | 8.56681 | 357 ft | 16 kts | 69° |
| 2026-04-16 06:15 | 50.04265 | 8.56857 | 361 ft | 20 kts | 70° |
| 2026-04-16 06:15 | 50.04321 | 8.57091 | 367 ft | 24 kts | 69° |
| 2026-04-16 06:15 | 50.04379 | 8.57335 | 361 ft | 25 kts | 70° |
| 2026-04-16 06:15 | 50.04428 | 8.57581 | 366 ft | 21 kts | 97° |
| 2026-04-16 06:16 | 50.04315 | 8.57698 | 363 ft | 21 kts | 173° |
| 2026-04-16 06:16 | 50.04230 | 8.57512 | 364 ft | 35 kts | 249° |
| 2026-04-16 06:16 | 50.04057 | 8.56787 | 359 ft | 105 kts | 250° |
| 2026-04-16 06:16 | 50.03732 | 8.55436 | 358 ft | 158 kts | 249° |
| 2026-04-16 06:17 | 50.03341 | 8.53865 | 952 ft | 156 kts | 248° |
| 2026-04-16 06:17 | 50.02959 | 8.52293 | 1642 ft | 157 kts | 250° |
| 2026-04-16 06:17 | 50.02533 | 8.50625 | 2024 ft | 177 kts | 242° |
| 2026-04-16 06:17 | 50.01702 | 8.49068 | 2437 ft | 197 kts | 220° |
| 2026-04-16 06:18 | 50.00454 | 8.48100 | 3052 ft | 206 kts | 197° |
| 2026-04-16 06:18 | 49.99020 | 8.47737 | 3709 ft | 210 kts | 191° |
| 2026-04-16 06:18 | 49.97563 | 8.47412 | 4380 ft | 213 kts | 191° |
| 2026-04-16 06:18 | 49.96090 | 8.47058 | 5063 ft | 214 kts | 196° |
| 2026-04-16 06:19 | 49.94626 | 8.46401 | 5455 ft | 233 kts | 199° |
| 2026-04-16 06:19 | 49.93017 | 8.45643 | 6037 ft | 246 kts | 202° |
| 2026-04-16 06:19 | 49.91578 | 8.44240 | 6808 ft | 247 kts | 230° |
| 2026-04-16 06:19 | 49.90740 | 8.41948 | 7600 ft | 246 kts | 257° |
| 2026-04-16 06:20 | 49.90698 | 8.39313 | 8414 ft | 247 kts | 285° |
| 2026-04-16 06:20 | 49.91471 | 8.36948 | 9231 ft | 250 kts | 312° |
| 2026-04-16 06:20 | 49.92893 | 8.35399 | 10074 ft | 254 kts | 335° |
| 2026-04-16 06:20 | 49.94625 | 8.34444 | 10466 ft | 276 kts | 340° |
| 2026-04-16 06:21 | 49.96527 | 8.33469 | 10731 ft | 300 kts | 340° |
| 2026-04-16 06:21 | 49.98580 | 8.32393 | 10967 ft | 323 kts | 340° |
| 2026-04-16 06:21 | 50.00720 | 8.31257 | 11468 ft | 334 kts | 339° |
| 2026-04-16 06:21 | 50.02934 | 8.30081 | 12157 ft | 339 kts | 339° |
| 2026-04-16 06:22 | 50.05184 | 8.28882 | 12886 ft | 344 kts | 339° |
| 2026-04-16 06:22 | 50.07464 | 8.27666 | 13588 ft | 349 kts | 339° |
| 2026-04-16 06:22 | 50.09775 | 8.26430 | 14269 ft | 353 kts | 338° |
| 2026-04-16 06:22 | 50.12108 | 8.25182 | 14912 ft | 356 kts | 338° |
| 2026-04-16 06:23 | 50.14459 | 8.23931 | 15597 ft | 358 kts | 338° |
| 2026-04-16 06:23 | 50.16795 | 8.22688 | 16254 ft | 361 kts | 338° |
| 2026-04-16 06:23 | 50.19176 | 8.21417 | 16927 ft | 363 kts | 338° |
| 2026-04-16 06:23 | 50.21575 | 8.20132 | 17578 ft | 366 kts | 338° |
| 2026-04-16 06:24 | 50.23990 | 8.18836 | 18230 ft | 368 kts | 338° |
| 2026-04-16 06:24 | 50.26422 | 8.17531 | 18838 ft | 371 kts | 338° |
| 2026-04-16 06:24 | 50.28870 | 8.16216 | 19382 ft | 374 kts | 338° |
| 2026-04-16 06:24 | 50.31341 | 8.14888 | 19927 ft | 377 kts | 338° |
| 2026-04-16 06:25 | 50.33827 | 8.13543 | 20466 ft | 380 kts | 337° |
| 2026-04-16 06:25 | 50.36339 | 8.12185 | 21003 ft | 383 kts | 337° |
| 2026-04-16 06:25 | 50.38836 | 8.10837 | 21547 ft | 386 kts | 337° |
| 2026-04-16 06:25 | 50.41388 | 8.09458 | 22043 ft | 389 kts | 337° |
| 2026-04-16 06:26 | 50.43952 | 8.08070 | 22190 ft | 392 kts | 337° |
| 2026-04-16 06:26 | 50.46549 | 8.06660 | 22215 ft | 396 kts | 337° |
| 2026-04-16 06:26 | 50.49158 | 8.05245 | 22214 ft | 397 kts | 337° |
| 2026-04-16 06:26 | 50.51774 | 8.03827 | 22212 ft | 398 kts | 337° |
| 2026-04-16 06:27 | 50.54389 | 8.02406 | 22210 ft | 398 kts | 337° |
| 2026-04-16 06:27 | 50.56970 | 8.01000 | 22215 ft | 398 kts | 337° |
| 2026-04-16 06:27 | 50.59584 | 7.99576 | 22215 ft | 398 kts | 337° |
| 2026-04-16 06:27 | 50.62200 | 7.98159 | 22216 ft | 398 kts | 337° |
| 2026-04-16 06:28 | 50.64817 | 7.96738 | 22220 ft | 398 kts | 337° |
| 2026-04-16 06:28 | 50.67430 | 7.95317 | 22217 ft | 397 kts | 337° |
| 2026-04-16 06:28 | 50.70043 | 7.93888 | 22218 ft | 398 kts | 336° |
| 2026-04-16 06:28 | 50.72657 | 7.92454 | 22214 ft | 398 kts | 336° |
| 2026-04-16 06:29 | 50.75257 | 7.91026 | 22056 ft | 391 kts | 336° |
| 2026-04-16 06:29 | 50.77754 | 7.89436 | 21380 ft | 386 kts | 327° |
| 2026-04-16 06:29 | 50.79942 | 7.86956 | 20339 ft | 391 kts | 318° |
| 2026-04-16 06:29 | 50.82042 | 7.84273 | 19537 ft | 394 kts | 318° |
| 2026-04-16 06:30 | 50.84179 | 7.81520 | 18693 ft | 398 kts | 319° |
| 2026-04-16 06:30 | 50.86327 | 7.78740 | 17772 ft | 400 kts | 319° |
| 2026-04-16 06:30 | 50.88487 | 7.75942 | 16838 ft | 402 kts | 319° |
| 2026-04-16 06:30 | 50.90660 | 7.73128 | 15944 ft | 404 kts | 319° |
| 2026-04-16 06:31 | 50.92844 | 7.70307 | 15069 ft | 406 kts | 319° |
| 2026-04-16 06:31 | 50.95024 | 7.67500 | 14459 ft | 401 kts | 319° |
| 2026-04-16 06:31 | 50.97179 | 7.64724 | 13847 ft | 397 kts | 319° |
| 2026-04-16 06:31 | 50.99279 | 7.62012 | 13183 ft | 392 kts | 319° |
| 2026-04-16 06:32 | 51.01380 | 7.59288 | 12524 ft | 388 kts | 319° |
| 2026-04-16 06:32 | 51.03450 | 7.56594 | 11881 ft | 383 kts | 319° |
| 2026-04-16 06:32 | 51.05498 | 7.53928 | 11251 ft | 378 kts | 319° |
| 2026-04-16 06:32 | 51.07515 | 7.51301 | 10633 ft | 372 kts | 319° |
| 2026-04-16 06:33 | 51.09505 | 7.48710 | 10033 ft | 367 kts | 319° |
| 2026-04-16 06:33 | 51.11470 | 7.46155 | 9364 ft | 362 kts | 319° |
| 2026-04-16 06:33 | 51.13407 | 7.43629 | 8721 ft | 357 kts | 319° |
| 2026-04-16 06:33 | 51.15298 | 7.41157 | 8261 ft | 348 kts | 319° |
| 2026-04-16 06:34 | 51.17148 | 7.38739 | 7758 ft | 340 kts | 319° |
| 2026-04-16 06:34 | 51.18935 | 7.36399 | 7264 ft | 334 kts | 319° |
| 2026-04-16 06:34 | 51.20714 | 7.34065 | 6769 ft | 329 kts | 319° |
| 2026-04-16 06:34 | 51.22464 | 7.31765 | 6255 ft | 323 kts | 319° |
| 2026-04-16 06:35 | 51.24182 | 7.29506 | 5840 ft | 315 kts | 319° |
| 2026-04-16 06:35 | 51.25837 | 7.27326 | 5590 ft | 303 kts | 319° |
| 2026-04-16 06:35 | 51.27433 | 7.25226 | 5337 ft | 292 kts | 319° |
| 2026-04-16 06:35 | 51.28972 | 7.23196 | 5087 ft | 282 kts | 319° |
| 2026-04-16 06:36 | 51.30459 | 7.21231 | 4830 ft | 273 kts | 319° |
| 2026-04-16 06:36 | 51.31903 | 7.19325 | 4571 ft | 265 kts | 319° |
| 2026-04-16 06:36 | 51.33283 | 7.17508 | 4315 ft | 257 kts | 319° |
| 2026-04-16 06:36 | 51.34639 | 7.15721 | 4053 ft | 249 kts | 319° |
| 2026-04-16 06:37 | 51.35949 | 7.13983 | 3810 ft | 241 kts | 318° |
| 2026-04-16 06:37 | 51.37220 | 7.12292 | 3552 ft | 234 kts | 318° |
| 2026-04-16 06:37 | 51.38414 | 7.10585 | 3300 ft | 226 kts | 306° |
| 2026-04-16 06:37 | 51.39011 | 7.08359 | 3078 ft | 216 kts | 278° |
| 2026-04-16 06:38 | 51.39164 | 7.06020 | 2995 ft | 208 kts | 274° |
| 2026-04-16 06:38 | 51.39252 | 7.03739 | 3010 ft | 207 kts | 274° |
| 2026-04-16 06:38 | 51.39330 | 7.01432 | 2994 ft | 207 kts | 272° |
| 2026-04-16 06:38 | 51.39132 | 6.99197 | 2955 ft | 198 kts | 250° |
| 2026-04-16 06:39 | 51.38462 | 6.97327 | 2969 ft | 193 kts | 235° |
| 2026-04-16 06:39 | 51.37655 | 6.95633 | 2810 ft | 190 kts | 236° |
| 2026-04-16 06:39 | 51.36859 | 6.93957 | 2620 ft | 188 kts | 236° |
| 2026-04-16 06:39 | 51.36079 | 6.92307 | 2384 ft | 183 kts | 236° |
| 2026-04-16 06:40 | 51.35316 | 6.90686 | 2096 ft | 181 kts | 236° |
| 2026-04-16 06:40 | 51.34562 | 6.89095 | 1836 ft | 178 kts | 235° |
| 2026-04-16 06:40 | 51.33830 | 6.87554 | 1602 ft | 168 kts | 235° |
| 2026-04-16 06:40 | 51.33146 | 6.86107 | 1370 ft | 157 kts | 235° |
| 2026-04-16 06:41 | 51.32528 | 6.84804 | 1196 ft | 144 kts | 235° |
| 2026-04-16 06:41 | 51.31938 | 6.83559 | 990 ft | 138 kts | 233° |
| 2026-04-16 06:41 | 51.31360 | 6.82346 | 818 ft | 136 kts | 232° |
| 2026-04-16 06:41 | 51.30791 | 6.81148 | 641 ft | 135 kts | 232° |
| 2026-04-16 06:42 | 51.30219 | 6.79949 | 461 ft | 135 kts | 231° |
| 2026-04-16 06:42 | 51.29652 | 6.78746 | 264 ft | 136 kts | 231° |
| 2026-04-16 06:42 | 51.29095 | 6.77582 | 130 ft | 119 kts | 232° |
| 2026-04-16 06:42 | 51.28702 | 6.76756 | 128 ft | 70 kts | 232° |
| 2026-04-16 06:43 | 51.28475 | 6.76280 | 127 ft | 33 kts | 232° |
| 2026-04-16 06:43 | 51.28365 | 6.76078 | 125 ft | 18 kts | 213° |
| 2026-04-16 06:43 | 51.28251 | 6.76043 | 125 ft | 16 kts | 168° |
| 2026-04-16 06:43 | 51.28196 | 6.76154 | 127 ft | 14 kts | 68° |
| 2026-04-16 06:44 | 51.28167 | 6.76276 | 127 ft | 13 kts | 137° |
| 2026-04-16 06:44 | 51.28121 | 6.76387 | 125 ft | 9 kts | 114° |
| 2026-04-16 06:44 | 51.28114 | 6.76457 | 124 ft | 3 kts | 96° |
| 2026-04-16 06:44 | 51.28111 | 6.76500 | 125 ft | 6 kts | 96° |
| 2026-04-16 06:45 | 51.28109 | 6.76534 | 128 ft | 0 kts | 96° |